sensor_id;sensor_type;location;lat;lon;timestamp;temperature;humidity
77865;DHT22;67061;48.524;9.040;2023-05-29T00:00:03;12.30;78.80
77865;DHT22;67061;48.524;9.040;2023-05-29T00:02:32;12.30;79.60
77865;DHT22;67061;48.524;9.040;2023-05-29T00:05:00;12.10;80.20
77865;DHT22;67061;48.524;9.040;2023-05-29T00:07:28;12.10;80.90
77865;DHT22;67061;48.524;9.040;2023-05-29T00:09:55;12.00;80.00
77865;DHT22;67061;48.524;9.040;2023-05-29T00:12:22;12.00;80.70
77865;DHT22;67061;48.524;9.040;2023-05-29T00:14:49;12.00;80.90
77865;DHT22;67061;48.524;9.040;2023-05-29T00:17:16;12.00;80.50
77865;DHT22;67061;48.524;9.040;2023-05-29T00:19:43;11.90;81.10
77865;DHT22;67061;48.524;9.040;2023-05-29T00:22:11;11.90;81.90
77865;DHT22;67061;48.524;9.040;2023-05-29T00:24:39;11.90;81.50
77865;DHT22;67061;48.524;9.040;2023-05-29T00:27:05;11.80;81.60
77865;DHT22;67061;48.524;9.040;2023-05-29T00:29:34;11.70;81.50
77865;DHT22;67061;48.524;9.040;2023-05-29T00:32:01;11.50;81.10
77865;DHT22;67061;48.524;9.040;2023-05-29T00:34:28;11.50;82.00
77865;DHT22;67061;48.524;9.040;2023-05-29T00:36:55;11.50;82.80
77865;DHT22;67061;48.524;9.040;2023-05-29T00:39:23;11.40;82.80
77865;DHT22;67061;48.524;9.040;2023-05-29T00:41:50;11.40;81.80
77865;DHT22;67061;48.524;9.040;2023-05-29T00:44:17;11.30;82.00
77865;DHT22;67061;48.524;9.040;2023-05-29T00:46:44;11.30;82.50
77865;DHT22;67061;48.524;9.040;2023-05-29T00:49:12;11.30;83.60
77865;DHT22;67061;48.524;9.040;2023-05-29T00:51:40;11.30;83.80
77865;DHT22;67061;48.524;9.040;2023-05-29T00:54:07;11.30;84.20
77865;DHT22;67061;48.524;9.040;2023-05-29T00:56:36;11.30;84.40
77865;DHT22;67061;48.524;9.040;2023-05-29T00:59:03;11.30;83.60
77865;DHT22;67061;48.524;9.040;2023-05-29T01:01:30;11.20;83.10
77865;DHT22;67061;48.524;9.040;2023-05-29T01:03:59;11.10;83.50
77865;DHT22;67061;48.524;9.040;2023-05-29T01:06:27;11.00;84.00
77865;DHT22;67061;48.524;9.040;2023-05-29T01:08:54;10.90;84.40
77865;DHT22;67061;48.524;9.040;2023-05-29T01:11:28;10.90;85.10
77865;DHT22;67061;48.524;9.040;2023-05-29T01:14:03;10.90;85.70
77865;DHT22;67061;48.524;9.040;2023-05-29T01:16:37;10.90;84.80
77865;DHT22;67061;48.524;9.040;2023-05-29T01:19:16;10.80;85.30
77865;DHT22;67061;48.524;9.040;2023-05-29T01:21:56;10.80;85.60
77865;DHT22;67061;48.524;9.040;2023-05-29T01:24:35;10.70;85.60
77865;DHT22;67061;48.524;9.040;2023-05-29T01:27:12;10.60;86.70
77865;DHT22;67061;48.524;9.040;2023-05-29T01:29:43;10.60;85.80
77865;DHT22;67061;48.524;9.040;2023-05-29T01:32:11;10.60;86.70
77865;DHT22;67061;48.524;9.040;2023-05-29T01:34:40;10.50;85.80
77865;DHT22;67061;48.524;9.040;2023-05-29T01:37:07;10.50;86.10
77865;DHT22;67061;48.524;9.040;2023-05-29T01:39:35;10.50;88.10
77865;DHT22;67061;48.524;9.040;2023-05-29T01:42:04;10.50;87.70
77865;DHT22;67061;48.524;9.040;2023-05-29T01:44:32;10.40;87.30
77865;DHT22;67061;48.524;9.040;2023-05-29T01:47:00;10.40;86.50
77865;DHT22;67061;48.524;9.040;2023-05-29T01:49:28;10.40;86.80
77865;DHT22;67061;48.524;9.040;2023-05-29T01:51:55;10.30;86.80
77865;DHT22;67061;48.524;9.040;2023-05-29T01:54:22;10.30;86.80
77865;DHT22;67061;48.524;9.040;2023-05-29T01:56:49;10.20;86.90
77865;DHT22;67061;48.524;9.040;2023-05-29T01:59:19;10.10;87.40
77865;DHT22;67061;48.524;9.040;2023-05-29T02:01:47;10.00;87.50
77865;DHT22;67061;48.524;9.040;2023-05-29T02:04:14;10.00;87.80
77865;DHT22;67061;48.524;9.040;2023-05-29T02:06:41;10.00;88.20
77865;DHT22;67061;48.524;9.040;2023-05-29T02:09:08;10.00;88.40
77865;DHT22;67061;48.524;9.040;2023-05-29T02:11:35;9.90;87.70
77865;DHT22;67061;48.524;9.040;2023-05-29T02:14:02;9.90;88.60
77865;DHT22;67061;48.524;9.040;2023-05-29T02:16:31;9.80;88.30
77865;DHT22;67061;48.524;9.040;2023-05-29T02:18:59;9.70;89.20
77865;DHT22;67061;48.524;9.040;2023-05-29T02:21:26;9.70;89.40
77865;DHT22;67061;48.524;9.040;2023-05-29T02:23:53;9.70;89.30
77865;DHT22;67061;48.524;9.040;2023-05-29T02:26:20;9.60;89.30
77865;DHT22;67061;48.524;9.040;2023-05-29T02:28:48;9.60;89.80
77865;DHT22;67061;48.524;9.040;2023-05-29T02:31:15;9.60;89.90
77865;DHT22;67061;48.524;9.040;2023-05-29T02:33:43;9.50;89.70
77865;DHT22;67061;48.524;9.040;2023-05-29T02:36:10;9.50;90.40
77865;DHT22;67061;48.524;9.040;2023-05-29T02:38:37;9.50;90.30
77865;DHT22;67061;48.524;9.040;2023-05-29T02:41:04;9.50;89.90
77865;DHT22;67061;48.524;9.040;2023-05-29T02:43:31;9.50;90.10
77865;DHT22;67061;48.524;9.040;2023-05-29T02:45:58;9.40;90.00
77865;DHT22;67061;48.524;9.040;2023-05-29T02:48:25;9.40;90.30
77865;DHT22;67061;48.524;9.040;2023-05-29T02:50:53;9.40;90.60
77865;DHT22;67061;48.524;9.040;2023-05-29T02:53:20;9.40;90.10
77865;DHT22;67061;48.524;9.040;2023-05-29T02:55:48;9.40;90.20
77865;DHT22;67061;48.524;9.040;2023-05-29T02:58:16;9.40;90.10
77865;DHT22;67061;48.524;9.040;2023-05-29T03:00:43;9.30;90.00
77865;DHT22;67061;48.524;9.040;2023-05-29T03:03:10;9.20;90.00
77865;DHT22;67061;48.524;9.040;2023-05-29T03:05:37;9.20;90.70
77865;DHT22;67061;48.524;9.040;2023-05-29T03:08:05;9.20;91.50
77865;DHT22;67061;48.524;9.040;2023-05-29T03:10:32;9.20;91.40
77865;DHT22;67061;48.524;9.040;2023-05-29T03:12:59;9.20;90.80
77865;DHT22;67061;48.524;9.040;2023-05-29T03:15:26;9.10;91.20
77865;DHT22;67061;48.524;9.040;2023-05-29T03:17:53;9.10;91.50
77865;DHT22;67061;48.524;9.040;2023-05-29T03:20:20;9.00;91.60
77865;DHT22;67061;48.524;9.040;2023-05-29T03:22:46;9.00;92.00
77865;DHT22;67061;48.524;9.040;2023-05-29T03:25:16;9.00;92.20
77865;DHT22;67061;48.524;9.040;2023-05-29T03:27:43;8.90;91.00
77865;DHT22;67061;48.524;9.040;2023-05-29T03:30:10;8.80;91.50
77865;DHT22;67061;48.524;9.040;2023-05-29T03:32:38;8.60;92.30
77865;DHT22;67061;48.524;9.040;2023-05-29T03:35:05;8.60;92.10
77865;DHT22;67061;48.524;9.040;2023-05-29T03:37:32;8.60;91.90
77865;DHT22;67061;48.524;9.040;2023-05-29T03:39:58;8.60;91.80
77865;DHT22;67061;48.524;9.040;2023-05-29T03:42:27;8.50;92.10
77865;DHT22;67061;48.524;9.040;2023-05-29T03:44:56;8.40;92.60
77865;DHT22;67061;48.524;9.040;2023-05-29T03:47:23;8.40;92.90
77865;DHT22;67061;48.524;9.040;2023-05-29T03:49:50;8.30;93.10
77865;DHT22;67061;48.524;9.040;2023-05-29T03:52:16;8.20;93.90
77865;DHT22;67061;48.524;9.040;2023-05-29T03:54:43;8.20;94.80
77865;DHT22;67061;48.524;9.040;2023-05-29T03:57:10;8.20;94.30
77865;DHT22;67061;48.524;9.040;2023-05-29T03:59:39;8.10;94.20
77865;DHT22;67061;48.524;9.040;2023-05-29T04:02:05;8.10;94.60
77865;DHT22;67061;48.524;9.040;2023-05-29T04:04:32;8.00;95.10
77865;DHT22;67061;48.524;9.040;2023-05-29T04:06:59;8.00;94.90
77865;DHT22;67061;48.524;9.040;2023-05-29T04:09:26;8.00;95.40
77865;DHT22;67061;48.524;9.040;2023-05-29T04:11:53;8.00;95.30
77865;DHT22;67061;48.524;9.040;2023-05-29T04:14:20;8.00;95.00
77865;DHT22;67061;48.524;9.040;2023-05-29T04:16:48;8.00;95.50
77865;DHT22;67061;48.524;9.040;2023-05-29T04:19:15;8.00;94.90
77865;DHT22;67061;48.524;9.040;2023-05-29T04:21:42;8.10;95.50
77865;DHT22;67061;48.524;9.040;2023-05-29T04:24:09;8.10;95.80
77865;DHT22;67061;48.524;9.040;2023-05-29T04:26:36;8.20;96.90
77865;DHT22;67061;48.524;9.040;2023-05-29T04:29:06;8.20;97.20
77865;DHT22;67061;48.524;9.040;2023-05-29T04:31:33;8.30;97.30
77865;DHT22;67061;48.524;9.040;2023-05-29T04:34:03;8.30;97.40
77865;DHT22;67061;48.524;9.040;2023-05-29T04:36:31;8.40;97.10
77865;DHT22;67061;48.524;9.040;2023-05-29T04:38:59;8.50;96.80
77865;DHT22;67061;48.524;9.040;2023-05-29T04:41:26;8.60;96.60
77865;DHT22;67061;48.524;9.040;2023-05-29T04:43:57;8.60;96.00
77865;DHT22;67061;48.524;9.040;2023-05-29T04:46:24;8.80;95.30
77865;DHT22;67061;48.524;9.040;2023-05-29T04:48:51;8.80;94.90
77865;DHT22;67061;48.524;9.040;2023-05-29T04:51:21;8.70;95.30
77865;DHT22;67061;48.524;9.040;2023-05-29T04:53:49;8.80;95.50
77865;DHT22;67061;48.524;9.040;2023-05-29T04:56:17;8.90;95.50
77865;DHT22;67061;48.524;9.040;2023-05-29T04:58:44;8.90;95.30
77865;DHT22;67061;48.524;9.040;2023-05-29T05:01:11;8.90;95.40
77865;DHT22;67061;48.524;9.040;2023-05-29T05:03:40;9.00;95.50
77865;DHT22;67061;48.524;9.040;2023-05-29T05:06:07;9.00;95.30
77865;DHT22;67061;48.524;9.040;2023-05-29T05:08:35;9.00;95.20
77865;DHT22;67061;48.524;9.040;2023-05-29T05:11:02;9.10;94.50
77865;DHT22;67061;48.524;9.040;2023-05-29T05:13:29;9.20;94.60
77865;DHT22;67061;48.524;9.040;2023-05-29T05:15:56;9.20;94.70
77865;DHT22;67061;48.524;9.040;2023-05-29T05:18:23;9.30;94.50
77865;DHT22;67061;48.524;9.040;2023-05-29T05:20:50;9.40;94.90
77865;DHT22;67061;48.524;9.040;2023-05-29T05:23:17;9.50;94.90
77865;DHT22;67061;48.524;9.040;2023-05-29T05:25:45;9.60;93.60
77865;DHT22;67061;48.524;9.040;2023-05-29T05:28:12;9.70;93.60
77865;DHT22;67061;48.524;9.040;2023-05-29T05:30:39;9.80;93.00
77865;DHT22;67061;48.524;9.040;2023-05-29T05:33:06;9.90;93.40
77865;DHT22;67061;48.524;9.040;2023-05-29T05:35:33;10.00;92.10
77865;DHT22;67061;48.524;9.040;2023-05-29T05:38:00;10.10;91.60
77865;DHT22;67061;48.524;9.040;2023-05-29T05:40:27;10.20;90.60
77865;DHT22;67061;48.524;9.040;2023-05-29T05:42:55;10.30;90.60
77865;DHT22;67061;48.524;9.040;2023-05-29T05:45:22;10.30;90.20
77865;DHT22;67061;48.524;9.040;2023-05-29T05:47:49;10.40;90.00
77865;DHT22;67061;48.524;9.040;2023-05-29T05:50:16;10.50;89.60
77865;DHT22;67061;48.524;9.040;2023-05-29T05:52:43;10.50;89.90
77865;DHT22;67061;48.524;9.040;2023-05-29T05:55:10;10.60;90.20
77865;DHT22;67061;48.524;9.040;2023-05-29T05:57:37;10.70;90.90
77865;DHT22;67061;48.524;9.040;2023-05-29T06:00:07;10.90;90.00
77865;DHT22;67061;48.524;9.040;2023-05-29T06:02:36;11.10;89.60
77865;DHT22;67061;48.524;9.040;2023-05-29T06:05:04;11.10;89.20
77865;DHT22;67061;48.524;9.040;2023-05-29T06:07:32;11.20;88.40
77865;DHT22;67061;48.524;9.040;2023-05-29T06:09:59;11.30;88.70
77865;DHT22;67061;48.524;9.040;2023-05-29T06:12:26;11.30;87.60
77865;DHT22;67061;48.524;9.040;2023-05-29T06:14:53;11.40;87.00
77865;DHT22;67061;48.524;9.040;2023-05-29T06:17:22;11.50;87.20
77865;DHT22;67061;48.524;9.040;2023-05-29T06:19:49;11.50;85.10
77865;DHT22;67061;48.524;9.040;2023-05-29T06:22:16;11.60;85.00
77865;DHT22;67061;48.524;9.040;2023-05-29T06:24:42;11.70;84.20
77865;DHT22;67061;48.524;9.040;2023-05-29T06:27:10;11.70;83.40
77865;DHT22;67061;48.524;9.040;2023-05-29T06:29:36;11.80;83.90
77865;DHT22;67061;48.524;9.040;2023-05-29T06:32:04;11.90;83.60
77865;DHT22;67061;48.524;9.040;2023-05-29T06:34:32;12.00;84.10
77865;DHT22;67061;48.524;9.040;2023-05-29T06:36:59;12.10;84.20
77865;DHT22;67061;48.524;9.040;2023-05-29T06:39:26;12.20;83.60
77865;DHT22;67061;48.524;9.040;2023-05-29T06:41:53;12.30;82.80
77865;DHT22;67061;48.524;9.040;2023-05-29T06:44:20;12.40;83.20
77865;DHT22;67061;48.524;9.040;2023-05-29T06:46:47;12.50;83.70
77865;DHT22;67061;48.524;9.040;2023-05-29T06:49:14;12.70;81.50
77865;DHT22;67061;48.524;9.040;2023-05-29T06:51:43;12.90;81.80
77865;DHT22;67061;48.524;9.040;2023-05-29T06:54:10;13.00;80.60
77865;DHT22;67061;48.524;9.040;2023-05-29T06:56:37;13.10;81.10
77865;DHT22;67061;48.524;9.040;2023-05-29T06:59:04;13.10;80.40
77865;DHT22;67061;48.524;9.040;2023-05-29T07:01:31;13.30;81.20
77865;DHT22;67061;48.524;9.040;2023-05-29T07:03:58;13.30;78.80
77865;DHT22;67061;48.524;9.040;2023-05-29T07:06:25;13.40;79.70
77865;DHT22;67061;48.524;9.040;2023-05-29T07:08:53;13.50;78.50
77865;DHT22;67061;48.524;9.040;2023-05-29T07:11:20;13.70;78.40
77865;DHT22;67061;48.524;9.040;2023-05-29T07:13:47;13.90;77.20
77865;DHT22;67061;48.524;9.040;2023-05-29T07:16:14;13.90;77.60
77865;DHT22;67061;48.524;9.040;2023-05-29T07:18:41;14.00;77.70
77865;DHT22;67061;48.524;9.040;2023-05-29T07:21:08;14.00;78.30
77865;DHT22;67061;48.524;9.040;2023-05-29T07:23:35;14.10;77.90
77865;DHT22;67061;48.524;9.040;2023-05-29T07:26:04;14.30;78.10
77865;DHT22;67061;48.524;9.040;2023-05-29T07:28:31;14.40;75.40
77865;DHT22;67061;48.524;9.040;2023-05-29T07:30:58;14.60;75.50
77865;DHT22;67061;48.524;9.040;2023-05-29T07:33:24;14.70;74.90
77865;DHT22;67061;48.524;9.040;2023-05-29T07:35:51;14.90;75.30
77865;DHT22;67061;48.524;9.040;2023-05-29T07:38:18;15.00;75.20
77865;DHT22;67061;48.524;9.040;2023-05-29T07:40:45;15.10;73.40
77865;DHT22;67061;48.524;9.040;2023-05-29T07:43:13;15.30;73.10
77865;DHT22;67061;48.524;9.040;2023-05-29T07:45:40;15.50;73.80
77865;DHT22;67061;48.524;9.040;2023-05-29T07:48:07;15.60;72.80
77865;DHT22;67061;48.524;9.040;2023-05-29T07:50:34;15.80;73.20
77865;DHT22;67061;48.524;9.040;2023-05-29T07:53:02;15.90;72.30
77865;DHT22;67061;48.524;9.040;2023-05-29T07:55:31;16.00;71.80
77865;DHT22;67061;48.524;9.040;2023-05-29T07:57:58;16.20;71.80
77865;DHT22;67061;48.524;9.040;2023-05-29T08:00:26;16.40;71.90
77865;DHT22;67061;48.524;9.040;2023-05-29T08:02:54;16.50;71.20
77865;DHT22;67061;48.524;9.040;2023-05-29T08:05:20;16.70;71.40
77865;DHT22;67061;48.524;9.040;2023-05-29T08:07:47;17.00;70.40
77865;DHT22;67061;48.524;9.040;2023-05-29T08:10:15;17.00;69.20
77865;DHT22;67061;48.524;9.040;2023-05-29T08:12:42;17.20;67.70
77865;DHT22;67061;48.524;9.040;2023-05-29T08:15:09;17.40;69.00
77865;DHT22;67061;48.524;9.040;2023-05-29T08:17:38;17.50;69.00
77865;DHT22;67061;48.524;9.040;2023-05-29T08:20:06;17.60;66.20
77865;DHT22;67061;48.524;9.040;2023-05-29T08:22:35;17.80;67.20
77865;DHT22;67061;48.524;9.040;2023-05-29T08:25:02;18.00;66.30
77865;DHT22;67061;48.524;9.040;2023-05-29T08:27:29;18.00;64.40
77865;DHT22;67061;48.524;9.040;2023-05-29T08:29:56;18.30;59.60
77865;DHT22;67061;48.524;9.040;2023-05-29T08:32:23;18.50;60.50
77865;DHT22;67061;48.524;9.040;2023-05-29T08:34:51;18.60;61.50
77865;DHT22;67061;48.524;9.040;2023-05-29T08:37:19;18.70;59.50
77865;DHT22;67061;48.524;9.040;2023-05-29T08:39:46;18.80;59.50
77865;DHT22;67061;48.524;9.040;2023-05-29T08:42:17;18.90;56.70
77865;DHT22;67061;48.524;9.040;2023-05-29T08:44:47;19.10;55.80
77865;DHT22;67061;48.524;9.040;2023-05-29T08:47:15;19.20;56.80
77865;DHT22;67061;48.524;9.040;2023-05-29T08:49:50;19.40;55.00
77865;DHT22;67061;48.524;9.040;2023-05-29T08:52:23;19.50;55.30
77865;DHT22;67061;48.524;9.040;2023-05-29T08:54:51;19.50;54.10
77865;DHT22;67061;48.524;9.040;2023-05-29T08:57:19;19.50;54.50
77865;DHT22;67061;48.524;9.040;2023-05-29T08:59:47;19.50;56.20
77865;DHT22;67061;48.524;9.040;2023-05-29T09:02:16;19.70;53.90
77865;DHT22;67061;48.524;9.040;2023-05-29T09:04:43;19.80;52.20
77865;DHT22;67061;48.524;9.040;2023-05-29T09:07:13;19.90;52.90
77865;DHT22;67061;48.524;9.040;2023-05-29T09:09:41;19.90;53.70
77865;DHT22;67061;48.524;9.040;2023-05-29T09:12:08;20.00;54.30
77865;DHT22;67061;48.524;9.040;2023-05-29T09:14:36;20.10;52.90
77865;DHT22;67061;48.524;9.040;2023-05-29T09:17:04;20.30;52.70
77865;DHT22;67061;48.524;9.040;2023-05-29T09:19:32;20.30;51.80
77865;DHT22;67061;48.524;9.040;2023-05-29T09:22:04;20.40;51.60
77865;DHT22;67061;48.524;9.040;2023-05-29T09:24:33;20.50;51.70
77865;DHT22;67061;48.524;9.040;2023-05-29T09:27:02;20.80;50.70
77865;DHT22;67061;48.524;9.040;2023-05-29T09:29:31;20.80;50.60
77865;DHT22;67061;48.524;9.040;2023-05-29T09:31:58;20.90;50.10
77865;DHT22;67061;48.524;9.040;2023-05-29T09:34:25;21.00;49.70
77865;DHT22;67061;48.524;9.040;2023-05-29T09:36:53;21.00;48.90
77865;DHT22;67061;48.524;9.040;2023-05-29T09:39:22;21.00;49.00
77865;DHT22;67061;48.524;9.040;2023-05-29T09:41:49;21.00;49.30
77865;DHT22;67061;48.524;9.040;2023-05-29T09:44:17;21.00;49.50
77865;DHT22;67061;48.524;9.040;2023-05-29T09:46:48;21.00;47.30
77865;DHT22;67061;48.524;9.040;2023-05-29T09:49:15;21.10;47.90
77865;DHT22;67061;48.524;9.040;2023-05-29T09:51:46;21.10;47.50
77865;DHT22;67061;48.524;9.040;2023-05-29T09:54:17;21.10;47.80
77865;DHT22;67061;48.524;9.040;2023-05-29T09:56:45;21.10;48.50
77865;DHT22;67061;48.524;9.040;2023-05-29T09:59:14;21.30;49.20
77865;DHT22;67061;48.524;9.040;2023-05-29T10:01:42;21.50;48.00
77865;DHT22;67061;48.524;9.040;2023-05-29T10:04:11;21.50;47.20
77865;DHT22;67061;48.524;9.040;2023-05-29T10:06:39;21.60;49.20
77865;DHT22;67061;48.524;9.040;2023-05-29T10:09:09;21.70;48.30
77865;DHT22;67061;48.524;9.040;2023-05-29T10:11:38;21.80;48.00
77865;DHT22;67061;48.524;9.040;2023-05-29T10:14:10;21.90;46.60
77865;DHT22;67061;48.524;9.040;2023-05-29T10:16:43;21.90;46.70
77865;DHT22;67061;48.524;9.040;2023-05-29T10:19:13;21.90;46.50
77865;DHT22;67061;48.524;9.040;2023-05-29T10:21:42;21.90;46.10
77865;DHT22;67061;48.524;9.040;2023-05-29T10:24:11;21.90;45.90
77865;DHT22;67061;48.524;9.040;2023-05-29T10:26:39;22.00;44.20
77865;DHT22;67061;48.524;9.040;2023-05-29T10:29:11;22.00;44.50
77865;DHT22;67061;48.524;9.040;2023-05-29T10:31:46;21.90;44.80
77865;DHT22;67061;48.524;9.040;2023-05-29T10:34:25;22.00;43.70
77865;DHT22;67061;48.524;9.040;2023-05-29T10:37:02;22.10;43.50
77865;DHT22;67061;48.524;9.040;2023-05-29T10:39:31;22.40;44.40
77865;DHT22;67061;48.524;9.040;2023-05-29T10:41:59;22.50;43.50
77865;DHT22;67061;48.524;9.040;2023-05-29T10:44:39;22.50;41.70
77865;DHT22;67061;48.524;9.040;2023-05-29T10:47:22;22.50;43.60
77865;DHT22;67061;48.524;9.040;2023-05-29T10:49:50;22.50;44.80
77865;DHT22;67061;48.524;9.040;2023-05-29T10:52:19;22.60;44.50
77865;DHT22;67061;48.524;9.040;2023-05-29T10:54:52;22.60;44.10
77865;DHT22;67061;48.524;9.040;2023-05-29T10:57:21;22.80;42.10
77865;DHT22;67061;48.524;9.040;2023-05-29T10:59:58;22.80;41.80
77865;DHT22;67061;48.524;9.040;2023-05-29T11:02:26;23.00;41.50
77865;DHT22;67061;48.524;9.040;2023-05-29T11:05:18;23.10;39.50
77865;DHT22;67061;48.524;9.040;2023-05-29T11:07:53;23.00;40.30
77865;DHT22;67061;48.524;9.040;2023-05-29T11:10:43;23.00;41.90
77865;DHT22;67061;48.524;9.040;2023-05-29T11:13:10;23.30;40.70
77865;DHT22;67061;48.524;9.040;2023-05-29T11:15:37;23.50;40.10
77865;DHT22;67061;48.524;9.040;2023-05-29T11:18:09;23.60;38.30
77865;DHT22;67061;48.524;9.040;2023-05-29T11:20:43;23.50;40.40
77865;DHT22;67061;48.524;9.040;2023-05-29T11:23:15;23.40;40.20
77865;DHT22;67061;48.524;9.040;2023-05-29T11:25:45;23.60;40.10
77865;DHT22;67061;48.524;9.040;2023-05-29T11:28:13;23.60;39.80
77865;DHT22;67061;48.524;9.040;2023-05-29T11:30:45;23.80;38.60
77865;DHT22;67061;48.524;9.040;2023-05-29T11:33:20;23.80;37.90
77865;DHT22;67061;48.524;9.040;2023-05-29T11:35:52;23.70;37.40
77865;DHT22;67061;48.524;9.040;2023-05-29T11:38:21;23.60;39.60
77865;DHT22;67061;48.524;9.040;2023-05-29T11:40:48;23.80;39.10
77865;DHT22;67061;48.524;9.040;2023-05-29T11:43:16;23.80;36.60
77865;DHT22;67061;48.524;9.040;2023-05-29T11:45:43;23.90;38.20
77865;DHT22;67061;48.524;9.040;2023-05-29T11:48:10;24.10;35.70
77865;DHT22;67061;48.524;9.040;2023-05-29T11:50:38;24.40;36.20
77865;DHT22;67061;48.524;9.040;2023-05-29T11:53:05;24.40;35.80
77865;DHT22;67061;48.524;9.040;2023-05-29T11:55:32;24.40;35.00
77865;DHT22;67061;48.524;9.040;2023-05-29T11:58:00;24.80;35.80
77865;DHT22;67061;48.524;9.040;2023-05-29T12:00:31;24.80;34.50
77865;DHT22;67061;48.524;9.040;2023-05-29T12:02:58;24.50;36.90
77865;DHT22;67061;48.524;9.040;2023-05-29T12:05:29;24.60;35.70
77865;DHT22;67061;48.524;9.040;2023-05-29T12:07:58;24.60;35.70
77865;DHT22;67061;48.524;9.040;2023-05-29T12:10:27;24.70;35.30
77865;DHT22;67061;48.524;9.040;2023-05-29T12:12:56;25.00;35.00
77865;DHT22;67061;48.524;9.040;2023-05-29T12:15:23;25.00;36.10
77865;DHT22;67061;48.524;9.040;2023-05-29T12:17:51;25.40;35.40
77865;DHT22;67061;48.524;9.040;2023-05-29T12:20:19;25.50;37.10
77865;DHT22;67061;48.524;9.040;2023-05-29T12:22:48;25.70;36.50
77865;DHT22;67061;48.524;9.040;2023-05-29T12:25:17;25.50;35.60
77865;DHT22;67061;48.524;9.040;2023-05-29T12:27:45;25.30;34.00
77865;DHT22;67061;48.524;9.040;2023-05-29T12:30:14;25.20;36.00
77865;DHT22;67061;48.524;9.040;2023-05-29T12:32:43;25.00;35.40
77865;DHT22;67061;48.524;9.040;2023-05-29T12:35:12;25.00;36.90
77865;DHT22;67061;48.524;9.040;2023-05-29T12:37:47;25.00;36.80
77865;DHT22;67061;48.524;9.040;2023-05-29T12:40:17;24.90;35.80
77865;DHT22;67061;48.524;9.040;2023-05-29T12:42:45;24.70;36.60
77865;DHT22;67061;48.524;9.040;2023-05-29T12:45:13;24.70;38.20
77865;DHT22;67061;48.524;9.040;2023-05-29T12:47:51;24.70;37.70
77865;DHT22;67061;48.524;9.040;2023-05-29T12:50:23;24.70;36.60
77865;DHT22;67061;48.524;9.040;2023-05-29T12:52:58;25.00;36.80
77865;DHT22;67061;48.524;9.040;2023-05-29T12:55:27;25.00;35.50
77865;DHT22;67061;48.524;9.040;2023-05-29T12:57:54;24.90;35.70
77865;DHT22;67061;48.524;9.040;2023-05-29T13:00:21;24.70;35.20
77865;DHT22;67061;48.524;9.040;2023-05-29T13:02:49;24.70;35.60
77865;DHT22;67061;48.524;9.040;2023-05-29T13:05:16;24.80;35.30
77865;DHT22;67061;48.524;9.040;2023-05-29T13:07:46;24.80;34.90
77865;DHT22;67061;48.524;9.040;2023-05-29T13:10:13;24.80;37.20
77865;DHT22;67061;48.524;9.040;2023-05-29T13:12:42;25.20;34.20
77865;DHT22;67061;48.524;9.040;2023-05-29T13:15:10;25.20;34.00
77865;DHT22;67061;48.524;9.040;2023-05-29T13:17:38;25.20;34.60
77865;DHT22;67061;48.524;9.040;2023-05-29T13:20:07;25.30;33.50
77865;DHT22;67061;48.524;9.040;2023-05-29T13:22:34;25.20;34.00
77865;DHT22;67061;48.524;9.040;2023-05-29T13:25:00;25.20;33.90
77865;DHT22;67061;48.524;9.040;2023-05-29T13:27:27;25.20;33.50
77865;DHT22;67061;48.524;9.040;2023-05-29T13:29:56;25.00;33.50
77865;DHT22;67061;48.524;9.040;2023-05-29T13:32:23;24.80;33.90
77865;DHT22;67061;48.524;9.040;2023-05-29T13:34:49;25.00;35.90
77865;DHT22;67061;48.524;9.040;2023-05-29T13:37:16;25.00;33.80
77865;DHT22;67061;48.524;9.040;2023-05-29T13:39:43;25.00;32.80
77865;DHT22;67061;48.524;9.040;2023-05-29T13:42:10;25.00;33.30
77865;DHT22;67061;48.524;9.040;2023-05-29T13:44:37;25.00;32.80
77865;DHT22;67061;48.524;9.040;2023-05-29T13:47:07;25.00;32.40
77865;DHT22;67061;48.524;9.040;2023-05-29T13:49:33;25.20;30.10
77865;DHT22;67061;48.524;9.040;2023-05-29T13:52:01;25.40;31.10
77865;DHT22;67061;48.524;9.040;2023-05-29T13:54:28;25.30;29.30
77865;DHT22;67061;48.524;9.040;2023-05-29T13:56:56;25.20;29.60
77865;DHT22;67061;48.524;9.040;2023-05-29T13:59:23;25.20;31.30
77865;DHT22;67061;48.524;9.040;2023-05-29T14:01:50;25.20;31.70
77865;DHT22;67061;48.524;9.040;2023-05-29T14:04:19;25.40;32.50
77865;DHT22;67061;48.524;9.040;2023-05-29T14:06:45;25.40;31.50
77865;DHT22;67061;48.524;9.040;2023-05-29T14:09:12;25.30;32.60
77865;DHT22;67061;48.524;9.040;2023-05-29T14:11:39;25.50;31.70
77865;DHT22;67061;48.524;9.040;2023-05-29T14:14:06;25.40;31.20
77865;DHT22;67061;48.524;9.040;2023-05-29T14:16:33;25.40;30.30
77865;DHT22;67061;48.524;9.040;2023-05-29T14:19:00;25.40;31.20
77865;DHT22;67061;48.524;9.040;2023-05-29T14:21:28;25.40;31.20
77865;DHT22;67061;48.524;9.040;2023-05-29T14:23:56;25.20;31.60
77865;DHT22;67061;48.524;9.040;2023-05-29T14:26:23;25.20;31.20
77865;DHT22;67061;48.524;9.040;2023-05-29T14:28:50;25.40;29.60
77865;DHT22;67061;48.524;9.040;2023-05-29T14:31:16;25.50;30.10
77865;DHT22;67061;48.524;9.040;2023-05-29T14:33:43;25.30;31.20
77865;DHT22;67061;48.524;9.040;2023-05-29T14:36:10;25.40;30.60
77865;DHT22;67061;48.524;9.040;2023-05-29T14:38:39;25.40;29.10
77865;DHT22;67061;48.524;9.040;2023-05-29T14:41:08;25.30;30.60
77865;DHT22;67061;48.524;9.040;2023-05-29T14:43:35;25.40;29.80
77865;DHT22;67061;48.524;9.040;2023-05-29T14:46:02;25.50;31.00
77865;DHT22;67061;48.524;9.040;2023-05-29T14:48:30;25.40;30.30
77865;DHT22;67061;48.524;9.040;2023-05-29T14:50:57;25.40;30.30
77865;DHT22;67061;48.524;9.040;2023-05-29T14:53:24;25.20;30.50
77865;DHT22;67061;48.524;9.040;2023-05-29T14:55:52;25.20;30.70
77865;DHT22;67061;48.524;9.040;2023-05-29T14:58:18;25.40;30.00
77865;DHT22;67061;48.524;9.040;2023-05-29T15:00:45;25.50;29.50
77865;DHT22;67061;48.524;9.040;2023-05-29T15:03:12;25.50;30.70
77865;DHT22;67061;48.524;9.040;2023-05-29T15:05:39;25.50;30.50
77865;DHT22;67061;48.524;9.040;2023-05-29T15:08:06;25.60;29.30
77865;DHT22;67061;48.524;9.040;2023-05-29T15:10:33;25.60;29.70
77865;DHT22;67061;48.524;9.040;2023-05-29T15:13:01;25.50;31.10
77865;DHT22;67061;48.524;9.040;2023-05-29T15:15:30;25.60;29.70
77865;DHT22;67061;48.524;9.040;2023-05-29T15:17:57;25.60;30.40
77865;DHT22;67061;48.524;9.040;2023-05-29T15:20:25;25.60;29.70
77865;DHT22;67061;48.524;9.040;2023-05-29T15:22:52;25.50;29.70
77865;DHT22;67061;48.524;9.040;2023-05-29T15:25:20;25.40;29.00
77865;DHT22;67061;48.524;9.040;2023-05-29T15:27:47;25.30;29.80
77865;DHT22;67061;48.524;9.040;2023-05-29T15:30:17;25.30;29.40
77865;DHT22;67061;48.524;9.040;2023-05-29T15:32:45;25.40;29.40
77865;DHT22;67061;48.524;9.040;2023-05-29T15:35:14;25.40;29.40
77865;DHT22;67061;48.524;9.040;2023-05-29T15:37:41;25.30;29.40
77865;DHT22;67061;48.524;9.040;2023-05-29T15:40:09;25.30;29.70